»·PEaware :: N13W KSNA-KWHP

N13W :: KSNA-KWHP

FLIGHT INFORMATION

Flight Status: Arrived
Operator: Privately registered:
United States
More flights under this callsign
Pilot: Will N. (25416)
Aircraft: CESSNA 172 SKYHAWK
(C172)
More flights by this aircraft type
Origin: KSNA John Wayne-Orange Co
United States
Destination: KWHP Whiteman
United States
More flights between these airports :: More routes between these airports
Route:
File this flight plan on PilotEdge
Remarks:
Altitude:
(Current/Filed)
4,500ft
Speed:
(Current/Filed)
110kts
Departed: 14-Nov-19 05:14 PM
Arrived: 14-Nov-19 05:56 PM
Distance/Time
Traveled:
44nm/0:42
Distance/Time
To Go:
Arrived

Flight Plot

Page will automatically refresh every two minutes.


Map Options




Map Legend


Flown Route
Filed Route
Departure Airport
Arrival Airport
Navaid (VOR, NDB)
Fix

Horizontal Profiles

Position Reports

Time Latitude Longitude Heading Altitude Ground
Speed
14-Nov-19 16:43 33.671605 -117.867758 0 60ft 0kts
14-Nov-19 16:44 33.671605 -117.867758 207 60ft 0kts
14-Nov-19 16:46 33.671605 -117.867758 207 60ft 0kts
14-Nov-19 16:47 33.671605 -117.867758 207 60ft 0kts
14-Nov-19 16:48 33.671605 -117.867758 207 60ft 0kts
14-Nov-19 16:49 33.671605 -117.867758 207 60ft 0kts
14-Nov-19 16:50 33.671605 -117.867758 207 60ft 0kts
14-Nov-19 16:51 33.671605 -117.867758 207 60ft 0kts
14-Nov-19 16:52 33.671605 -117.867758 207 60ft 0kts
14-Nov-19 16:53 33.671605 -117.867758 207 60ft 0kts
14-Nov-19 16:54 33.671605 -117.867758 207 60ft 0kts
14-Nov-19 16:55 33.671605 -117.867758 207 60ft 0kts
14-Nov-19 16:56 33.671605 -117.867758 207 60ft 0kts
14-Nov-19 16:57 33.671605 -117.867758 207 60ft 0kts
14-Nov-19 16:58 33.671605 -117.867758 207 60ft 0kts
14-Nov-19 16:59 33.671605 -117.867758 207 60ft 0kts
14-Nov-19 17:00 33.671605 -117.867758 207 60ft 0kts
14-Nov-19 17:01 33.671605 -117.867758 207 60ft 0kts
14-Nov-19 17:02 33.671605 -117.867758 207 60ft 0kts
14-Nov-19 17:03 33.671605 -117.867758 207 60ft 0kts
14-Nov-19 17:04 33.671605 -117.867758 207 60ft 0kts
14-Nov-19 17:05 33.671605 -117.867758 207 60ft 0kts
14-Nov-19 17:06 33.671605 -117.867758 207 60ft 0kts
14-Nov-19 17:07 33.671605 -117.867758 207 60ft 0kts
14-Nov-19 17:08 33.671690 -117.867794 16 60ft 5kts
14-Nov-19 17:08 33.672221 -117.867507 28 60ft 0kts
14-Nov-19 17:10 33.674563 -117.866814 26 60ft 11kts
14-Nov-19 17:11 33.677605 -117.864873 27 60ft 12kts
14-Nov-19 17:11 33.679855 -117.863508 350 60ft 6kts
14-Nov-19 17:12 33.679955 -117.863596 284 60ft 0kts
14-Nov-19 17:14 33.677649 -117.865755 206 60ft 66kts
14-Nov-19 17:14 33.662850 -117.878418 233 799ft 80kts
14-Nov-19 17:15 33.648064 -117.899203 234 1714ft 83kts
14-Nov-19 17:16 33.635030 -117.924807 240 2340ft 99kts
14-Nov-19 17:17 33.619147 -117.956615 248 2397ft 116kts
14-Nov-19 17:18 33.619347 -117.992074 330 2353ft 114kts
14-Nov-19 17:19 33.646533 -118.009729 301 2504ft 105kts
14-Nov-19 17:20 33.662349 -118.037347 310 3148ft 97kts
14-Nov-19 17:21 33.677942 -118.062948 296 3846ft 93kts
14-Nov-19 17:22 33.690540 -118.089967 296 4409ft 101kts
14-Nov-19 17:23 33.705448 -118.121723 297 4496ft 112kts
14-Nov-19 17:24 33.723111 -118.153764 300 4496ft 112kts
14-Nov-19 17:25 33.742933 -118.182393 309 4492ft 112kts
14-Nov-19 17:26 33.767831 -118.205601 321 4489ft 114kts
14-Nov-19 17:27 33.792089 -118.229320 299 4486ft 110kts
14-Nov-19 17:28 33.807570 -118.260668 296 4482ft 107kts
14-Nov-19 17:29 33.823161 -118.291343 302 4478ft 108kts
14-Nov-19 17:30 33.848145 -118.313656 316 4476ft 112kts
14-Nov-19 17:31 33.872998 -118.336420 316 4474ft 112kts
14-Nov-19 17:32 33.897916 -118.359165 316 4472ft 112kts
14-Nov-19 17:33 33.922904 -118.381866 316 4470ft 112kts
14-Nov-19 17:34 33.947752 -118.404338 317 4468ft 113kts
14-Nov-19 17:35 33.973079 -118.427251 317 4467ft 114kts
14-Nov-19 17:36 33.998586 -118.450425 317 4467ft 114kts
14-Nov-19 17:37 34.025522 -118.471856 313 4319ft 116kts
14-Nov-19 17:38 34.049281 -118.498118 312 3976ft 108kts
14-Nov-19 17:39 34.070610 -118.521629 312 3968ft 100kts
14-Nov-19 17:40 34.092585 -118.542896 322 3968ft 104kts
14-Nov-19 17:41 34.119526 -118.564106 323 3421ft 129kts
14-Nov-19 17:42 34.149090 -118.587935 323 2975ft 116kts
14-Nov-19 17:43 34.174805 -118.608353 323 2960ft 109kts
14-Nov-19 17:44 34.200171 -118.628487 323 2951ft 109kts
14-Nov-19 17:45 34.229067 -118.632248 21 2941ft 113kts
14-Nov-19 17:46 34.256683 -118.616401 49 2929ft 107kts
14-Nov-19 17:47 34.271380 -118.586077 68 2922ft 104kts
14-Nov-19 17:48 34.281873 -118.552908 74 2733ft 116kts
14-Nov-19 17:49 34.294621 -118.516835 67 2270ft 106kts
14-Nov-19 17:50 34.305328 -118.487361 85 2308ft 73kts
14-Nov-19 17:51 34.301364 -118.464059 108 1950ft 69kts
14-Nov-19 17:52 34.289954 -118.445657 139 1547ft 69kts
14-Nov-19 17:53 34.275513 -118.430732 138 1210ft 67kts
14-Nov-19 17:54 34.262885 -118.417259 137 1002ft 52kts
14-Nov-19 17:55 34.259473 -118.413039 42 989ft 0kts
14-Nov-19 17:56 34.259966 -118.412664 307 992ft 0kts

Navigation Log

Ident Type
Flight plan parsing failed, navigation log unavailable